Jeanie G — WDB2354 — position and weather

sailwx.info

Track history (hours):
 
Tides and Currents Weather Stations Pressure Air Temp Water Temp Dewpoint Dewpoint Depression Visibility Wind Speed Wind Dir Waves Ship Positions

Jeanie G

Owner: MARTIN OPERATING PARTNERSHIP LP, VIDOR, TX. More information available from US FCC via Universal Licensing System and Coast Guard Vessel Documentation Center.

Last reported at 2014-Oct-21 12:33 UTC. Time now 2014-Oct-22 23:59 UTC.
Position N 29°48' W 092°09'.

MMSI: 366875010.

Date/timePositionNaut miles runAvg speedWind from/ knotsBaromVisibWave heightAir tempDewpointWater temp
2014-Oct-21 12:33N 29°48' W 092°09'0 0.0
2014-Oct-21 11:11N 29°48' W 092°09'0 0.0
2014-Oct-21 10:24N 29°48' W 092°09'0 0.0
2014-Oct-21 09:24N 29°48' W 092°09'0 0.0
2014-Oct-21 06:21N 29°48' W 092°09'2 0.1
2014-Oct-20 13:04N 29°47' W 092°10'2 4.0
2014-Oct-20 12:33N 29°47' W 092°08'4 3.5
2014-Oct-20 11:33N 29°48' W 092°04'5 4.0
2014-Oct-20 10:20N 29°50' W 091°59'3 4.1
2014-Oct-20 09:33N 29°51' W 091°55'5 4.5
2014-Oct-20 08:33N 29°50' W 091°50'5 2.0
2014-Oct-20 06:11N 29°46' W 091°47'2 3.7
2014-Oct-20 05:32N 29°46' W 091°44'4 3.8
2014-Oct-20 04:33N 29°46' W 091°40'4 3.9
2014-Oct-20 03:33N 29°45' W 091°36'4 4.4
2014-Oct-20 02:33N 29°42' W 091°31'5 4.5
2014-Oct-20 01:33N 29°40' W 091°27'4 3.9
2014-Oct-20 00:33N 29°39' W 091°23'5 4.7
2014-Oct-19 23:33N 29°39' W 091°17'5 4.9
2014-Oct-19 22:33N 29°41' W 091°12'2 2.4
2014-Oct-19 21:33N 29°41' W 091°10'4 3.6
2014-Oct-19 20:33N 29°38' W 091°07'2 1.6
2014-Oct-19 19:33N 29°40' W 091°06'0 0.0
2014-Oct-19 18:33N 29°40' W 091°06'0 0.0
2014-Oct-19 17:33N 29°40' W 091°06'0 0.0
2014-Oct-19 16:33N 29°40' W 091°06'0 0.0
2014-Oct-19 15:33N 29°40' W 091°06'0 0.0
2014-Oct-19 14:33N 29°40' W 091°06'0 0.0
2014-Oct-19 13:33N 29°40' W 091°06'0 0.0
2014-Oct-19 12:33N 29°40' W 091°06'0 0.0
2014-Oct-19 11:33N 29°40' W 091°06'0 0.0
2014-Oct-19 10:33N 29°40' W 091°06'0 0.0
2014-Oct-19 09:33N 29°40' W 091°06'1 1.2
2014-Oct-19 08:33N 29°39' W 091°06'3 3.0
2014-Oct-19 07:33N 29°37' W 091°03'3 3.0
2014-Oct-19 06:33N 29°37' W 090°60'3 3.5
2014-Oct-19 05:33N 29°34' W 090°57'4 3.8
2014-Oct-19 04:33N 29°33' W 090°53'5 3.6
2014-Oct-19 03:12N 29°32' W 090°48'38 2.7
2014-Oct-18 13:06N 29°46' W 090°07'12 1.8
2014-Oct-18 06:14N 29°56' W 089°58'0 0.0
2014-Oct-17 07:29N 29°56' W 089°58'0 0.0
2014-Oct-17 06:32N 29°56' W 089°58'14 0.3
2014-Oct-15 11:23N 29°58' W 090°14'0 0.0
2014-Oct-15 10:29N 29°58' W 090°14'0 0.0
2014-Oct-15 07:27N 29°58' W 090°14'  
2014-Oct-12 20:08N 29°32' W 090°47'4 5.9
2014-Oct-12 19:31N 29°32' W 090°52'5 5.6
2014-Oct-12 18:33N 29°34' W 090°57'5 5.0
2014-Oct-12 17:33N 29°37' W 091°02'5 5.0
2014-Oct-12 16:33N 29°39' W 091°07'5 4.8
2014-Oct-12 15:33N 29°41' W 091°12'2 2.2
2014-Oct-12 14:33N 29°40' W 091°14'0 0.0
2014-Oct-12 13:33N 29°40' W 091°14'0 0.0
2014-Oct-12 12:33N 29°40' W 091°14'0 0.0
2014-Oct-12 11:33N 29°40' W 091°14'0 0.0
2014-Oct-12 10:33N 29°40' W 091°14'0 0.0
2014-Oct-12 09:33N 29°40' W 091°14'0 0.0
2014-Oct-12 08:33N 29°40' W 091°14'0 0.0
2014-Oct-12 07:33N 29°40' W 091°14'0 0.0
2014-Oct-12 06:33N 29°40' W 091°14'0 0.0
2014-Oct-12 05:33N 29°40' W 091°14'0 0.0
2014-Oct-12 04:33N 29°40' W 091°14'0 0.0
2014-Oct-12 03:33N 29°40' W 091°14'0 0.0
2014-Oct-12 02:33N 29°40' W 091°14'0 0.0
2014-Oct-12 01:33N 29°40' W 091°14'0 0.0
2014-Oct-12 00:33N 29°40' W 091°14'0 0.0
2014-Oct-11 23:33N 29°40' W 091°14'0 0.0
2014-Oct-11 22:33N 29°40' W 091°14'0 0.0
2014-Oct-11 21:33N 29°40' W 091°14'0 0.0
2014-Oct-11 20:33N 29°40' W 091°14'0 0.0
2014-Oct-11 19:33N 29°40' W 091°14'0 0.0
2014-Oct-11 18:33N 29°40' W 091°14'0 0.0
2014-Oct-11 17:33N 29°40' W 091°14'0 0.0
2014-Oct-11 16:33N 29°40' W 091°14'0 0.0
2014-Oct-11 15:33N 29°40' W 091°14'0 0.0
2014-Oct-11 14:33N 29°40' W 091°14'3 2.5
2014-Oct-11 13:33N 29°41' W 091°12'3 3.4
2014-Oct-11 12:33N 29°40' W 091°08'  
Track history (hours):
 
Tides and Currents Weather Stations Pressure Air Temp Water Temp Dewpoint Dewpoint Depression Visibility Wind Speed Wind Dir Waves Ship Positions

Jeanie G

Owner: MARTIN OPERATING PARTNERSHIP LP, VIDOR, TX. More information available from US FCC via Universal Licensing System and Coast Guard Vessel Documentation Center.

Last reported at 2014-Oct-21 12:33 UTC. Time now 2014-Oct-22 23:59 UTC.
Position N 29°48' W 092°09'.

MMSI: 366875010.

Date/timePositionNaut miles runAvg speedWind from/ knotsBaromVisibWave heightAir tempDewpointWater temp
2014-Oct-21 12:33N 29°48' W 092°09'0 0.0
2014-Oct-21 11:11N 29°48' W 092°09'0 0.0
2014-Oct-21 10:24N 29°48' W 092°09'0 0.0
2014-Oct-21 09:24N 29°48' W 092°09'0 0.0
2014-Oct-21 06:21N 29°48' W 092°09'2 0.1
2014-Oct-20 13:04N 29°47' W 092°10'2 4.0
2014-Oct-20 12:33N 29°47' W 092°08'4 3.5
2014-Oct-20 11:33N 29°48' W 092°04'5 4.0
2014-Oct-20 10:20N 29°50' W 091°59'3 4.1
2014-Oct-20 09:33N 29°51' W 091°55'5 4.5
2014-Oct-20 08:33N 29°50' W 091°50'5 2.0
2014-Oct-20 06:11N 29°46' W 091°47'2 3.7
2014-Oct-20 05:32N 29°46' W 091°44'4 3.8
2014-Oct-20 04:33N 29°46' W 091°40'4 3.9
2014-Oct-20 03:33N 29°45' W 091°36'4 4.4
2014-Oct-20 02:33N 29°42' W 091°31'5 4.5
2014-Oct-20 01:33N 29°40' W 091°27'4 3.9
2014-Oct-20 00:33N 29°39' W 091°23'5 4.7
2014-Oct-19 23:33N 29°39' W 091°17'5 4.9
2014-Oct-19 22:33N 29°41' W 091°12'2 2.4
2014-Oct-19 21:33N 29°41' W 091°10'4 3.6
2014-Oct-19 20:33N 29°38' W 091°07'2 1.6
2014-Oct-19 19:33N 29°40' W 091°06'0 0.0
2014-Oct-19 18:33N 29°40' W 091°06'0 0.0
2014-Oct-19 17:33N 29°40' W 091°06'0 0.0
2014-Oct-19 16:33N 29°40' W 091°06'0 0.0
2014-Oct-19 15:33N 29°40' W 091°06'0 0.0
2014-Oct-19 14:33N 29°40' W 091°06'0 0.0
2014-Oct-19 13:33N 29°40' W 091°06'0 0.0
2014-Oct-19 12:33N 29°40' W 091°06'0 0.0
2014-Oct-19 11:33N 29°40' W 091°06'0 0.0
2014-Oct-19 10:33N 29°40' W 091°06'0 0.0
2014-Oct-19 09:33N 29°40' W 091°06'1 1.2
2014-Oct-19 08:33N 29°39' W 091°06'3 3.0
2014-Oct-19 07:33N 29°37' W 091°03'3 3.0
2014-Oct-19 06:33N 29°37' W 090°60'3 3.5
2014-Oct-19 05:33N 29°34' W 090°57'4 3.8
2014-Oct-19 04:33N 29°33' W 090°53'5 3.6
2014-Oct-19 03:12N 29°32' W 090°48'38 2.7
2014-Oct-18 13:06N 29°46' W 090°07'12 1.8
2014-Oct-18 06:14N 29°56' W 089°58'0 0.0
2014-Oct-17 07:29N 29°56' W 089°58'0 0.0
2014-Oct-17 06:32N 29°56' W 089°58'14 0.3
2014-Oct-15 11:23N 29°58' W 090°14'0 0.0
2014-Oct-15 10:29N 29°58' W 090°14'0 0.0
2014-Oct-15 07:27N 29°58' W 090°14'  
2014-Oct-12 20:08N 29°32' W 090°47'4 5.9
2014-Oct-12 19:31N 29°32' W 090°52'5 5.6
2014-Oct-12 18:33N 29°34' W 090°57'5 5.0
2014-Oct-12 17:33N 29°37' W 091°02'5 5.0
2014-Oct-12 16:33N 29°39' W 091°07'5 4.8
2014-Oct-12 15:33N 29°41' W 091°12'2 2.2
2014-Oct-12 14:33N 29°40' W 091°14'0 0.0
2014-Oct-12 13:33N 29°40' W 091°14'0 0.0
2014-Oct-12 12:33N 29°40' W 091°14'0 0.0
2014-Oct-12 11:33N 29°40' W 091°14'0 0.0
2014-Oct-12 10:33N 29°40' W 091°14'0 0.0
2014-Oct-12 09:33N 29°40' W 091°14'0 0.0
2014-Oct-12 08:33N 29°40' W 091°14'0 0.0
2014-Oct-12 07:33N 29°40' W 091°14'0 0.0
2014-Oct-12 06:33N 29°40' W 091°14'0 0.0
2014-Oct-12 05:33N 29°40' W 091°14'0 0.0
2014-Oct-12 04:33N 29°40' W 091°14'0 0.0
2014-Oct-12 03:33N 29°40' W 091°14'0 0.0
2014-Oct-12 02:33N 29°40' W 091°14'0 0.0
2014-Oct-12 01:33N 29°40' W 091°14'0 0.0
2014-Oct-12 00:33N 29°40' W 091°14'0 0.0
2014-Oct-11 23:33N 29°40' W 091°14'0 0.0
2014-Oct-11 22:33N 29°40' W 091°14'0 0.0
2014-Oct-11 21:33N 29°40' W 091°14'0 0.0
2014-Oct-11 20:33N 29°40' W 091°14'0 0.0
2014-Oct-11 19:33N 29°40' W 091°14'0 0.0
2014-Oct-11 18:33N 29°40' W 091°14'0 0.0
2014-Oct-11 17:33N 29°40' W 091°14'0 0.0
2014-Oct-11 16:33N 29°40' W 091°14'0 0.0
2014-Oct-11 15:33N 29°40' W 091°14'0 0.0
2014-Oct-11 14:33N 29°40' W 091°14'3 2.5
2014-Oct-11 13:33N 29°41' W 091°12'3 3.4
2014-Oct-11 12:33N 29°40' W 091°08'  

Dump ship's entire track history